Time;durP1;ratioP1;P1;durP2;ratioP2;P2;SDS_P1;SDS_P2;PMS_P1;PMS_P2;Temp;Humidity;BMP_temperature;BMP_pressure;BME280_temperature;BME280_humidity;BME280_pressure;Samples;Min_cycle;Max_cycle;Signal;HPM_P1;HPM_P2
2023/02/23 00:01:26;;;;;;;25.47;14.93;;;10.00;78.70;;;;;;5032685;28;20443;-78
2023/02/23 00:03:55;;;;;;;29.33;15.50;;;10.00;79.00;;;;;;5028045;28;20412;-77
2023/02/23 00:06:21;;;;;;;31.23;15.43;;;10.00;79.00;;;;;;5031787;28;20448;-78
2023/02/23 00:08:47;;;;;;;30.43;15.37;;;10.10;78.70;;;;;;5031495;28;20522;-78
2023/02/23 00:11:14;;;;;;;28.60;14.00;;;10.20;78.30;;;;;;5031224;28;20502;-77
2023/02/23 00:13:44;;;;;;;28.23;14.87;;;10.20;77.80;;;;;;5028609;28;20272;-78
2023/02/23 00:16:14;;;;;;;25.73;13.73;;;10.20;78.10;;;;;;5029833;28;20440;-78
2023/02/23 00:18:44;;;;;;;26.43;14.60;;;10.20;78.30;;;;;;5046032;28;20426;-78
2023/02/23 00:21:13;;;;;;;32.37;15.10;;;10.20;78.30;;;;;;5052870;28;20790;-78
2023/02/23 00:23:46;;;;;;;27.10;15.13;;;10.30;78.40;;;;;;5051615;28;20474;-78
2023/02/23 00:26:12;;;;;;;22.93;13.90;;;10.30;78.40;;;;;;5045826;28;20563;-78
2023/02/23 00:28:41;;;;;;;24.53;14.53;;;10.40;77.80;;;;;;5053081;28;20456;-78
2023/02/23 00:31:06;;;;;;;28.67;14.20;;;10.40;77.40;;;;;;5044299;28;20416;-78
2023/02/23 00:33:33;;;;;;;20.80;13.87;;;10.40;77.40;;;;;;5041654;28;20509;-82
2023/02/23 00:36:09;;;;;;;25.80;14.97;;;10.40;77.60;;;;;;5036500;28;20216;-81
2023/02/23 00:38:35;;;;;;;25.73;15.53;;;10.40;77.70;;;;;;5037870;28;20439;-79
2023/02/23 00:41:09;;;;;;;27.77;15.23;;;10.40;78.10;;;;;;5038238;28;20420;-78
2023/02/23 00:43:37;;;;;;;31.40;15.60;;;10.10;79.20;;;;;;5033543;28;20487;-78
2023/02/23 00:46:04;;;;;;;28.37;15.70;;;10.10;80.50;;;;;;5036042;28;20502;-79
2023/02/23 00:48:34;;;;;;;28.80;16.53;;;10.00;81.40;;;;;;5035772;28;20415;-79
2023/02/23 00:51:04;;;;;;;28.77;16.87;;;10.00;82.50;;;;;;5037489;28;20806;-80
2023/02/23 00:53:31;;;;;;;31.57;16.20;;;9.90;83.70;;;;;;5037945;28;20504;-79
2023/02/23 00:55:57;;;;;;;32.90;17.00;;;9.90;84.70;;;;;;5031283;28;20463;-80
2023/02/23 00:58:24;;;;;;;40.13;18.07;;;9.80;85.20;;;;;;5037474;28;20423;-79
2023/02/23 01:00:50;;;;;;;31.40;17.70;;;9.90;85.90;;;;;;5035707;28;20423;-80
2023/02/23 01:03:16;;;;;;;34.37;17.37;;;9.90;86.30;;;;;;5036217;28;20570;-79
2023/02/23 01:05:42;;;;;;;36.90;17.97;;;9.80;86.80;;;;;;5029281;28;20224;-79
2023/02/23 01:08:09;;;;;;;37.43;18.53;;;9.80;86.90;;;;;;5035760;28;20250;-79
2023/02/23 01:10:40;;;;;;;36.07;19.10;;;9.80;87.10;;;;;;5032475;28;20416;-80
2023/02/23 01:13:06;;;;;;;39.00;19.10;;;9.80;87.40;;;;;;5031118;28;20419;-78
2023/02/23 01:15:31;;;;;;;32.00;19.30;;;9.80;87.40;;;;;;5033298;28;20435;-79
2023/02/23 01:17:57;;;;;;;34.47;19.17;;;9.80;87.70;;;;;;5034014;28;20238;-79
2023/02/23 01:20:23;;;;;;;35.23;19.03;;;9.80;88.00;;;;;;5034670;28;20193;-79
2023/02/23 01:22:50;;;;;;;37.27;18.97;;;9.80;88.40;;;;;;5035711;28;20974;-79
2023/02/23 01:25:17;;;;;;;32.50;18.10;;;9.80;88.70;;;;;;5030484;28;20456;-79
2023/02/23 01:27:44;;;;;;;32.97;18.73;;;9.80;88.70;;;;;;5035412;28;20850;-79
2023/02/23 01:30:13;;;;;;;41.70;20.17;;;9.80;88.90;;;;;;5035380;28;20416;-79
2023/02/23 01:32:39;;;;;;;35.93;18.97;;;9.80;89.20;;;;;;5035969;28;20415;-79
2023/02/23 01:35:07;;;;;;;32.37;17.83;;;9.80;89.20;;;;;;5033682;28;20452;-78
2023/02/23 01:37:35;;;;;;;30.60;16.47;;;9.80;89.20;;;;;;5034836;28;20797;-78
2023/02/23 01:40:05;;;;;;;34.07;18.87;;;9.70;89.30;;;;;;5036047;28;20419;-79
2023/02/23 01:42:31;;;;;;;25.80;15.83;;;9.80;89.30;;;;;;5034423;28;20881;-80
2023/02/23 01:45:36;;;;;;;29.53;15.80;;;9.70;89.30;;;;;;5030022;28;20449;-79
2023/02/23 01:48:06;;;;;;;27.60;15.60;;;9.70;89.30;;;;;;5015538;28;20428;-79
2023/02/23 01:50:39;;;;;;;30.23;16.93;;;9.70;89.30;;;;;;5017237;28;20520;-79
2023/02/23 01:53:05;;;;;;;30.60;17.73;;;9.70;89.30;;;;;;5015590;28;20417;-78
2023/02/23 01:55:31;;;;;;;32.83;17.10;;;9.80;89.50;;;;;;4993917;28;20847;-79
2023/02/23 01:58:04;;;;;;;38.93;18.07;;;9.80;89.50;;;;;;5015394;28;20434;-80
2023/02/23 02:00:31;;;;;;;31.20;17.27;;;9.80;89.50;;;;;;5016881;28;20178;-80
2023/02/23 02:03:01;;;;;;;31.60;17.40;;;9.70;89.60;;;;;;5020502;28;20487;-79
2023/02/23 02:05:28;;;;;;;41.27;20.37;;;9.70;89.70;;;;;;5023714;28;20457;-79
2023/02/23 02:07:57;;;;;;;30.70;18.67;;;9.70;89.90;;;;;;5017133;28;20556;-79
2023/02/23 02:13:13;;;;;;;39.20;19.63;;;9.80;90.30;;;;;;5016372;28;20417;-80
2023/02/23 02:16:05;;;;;;;41.67;21.60;;;9.80;90.40;;;;;;5005083;28;20487;-78
2023/02/23 02:18:40;;;;;;;41.60;20.00;;;9.80;90.60;;;;;;5010992;28;20425;-78
2023/02/23 02:21:41;;;;;;;41.77;21.10;;;9.80;90.60;;;;;;5015164;28;20422;-77
2023/02/23 02:24:36;;;;;;;41.83;21.00;;;9.80;90.80;;;;;;5030208;28;20424;-78
2023/02/23 02:27:42;;;;;;;41.07;20.63;;;9.80;90.90;;;;;;5030261;28;20420;-78
2023/02/23 02:30:29;;;;;;;41.27;21.20;;;9.80;91.00;;;;;;5030341;28;20412;-78
2023/02/23 02:33:25;;;;;;;38.50;20.30;;;9.80;91.10;;;;;;5025640;28;20474;-78
2023/02/23 02:36:29;;;;;;;41.93;20.33;;;9.80;91.10;;;;;;5027790;28;20443;-79
2023/02/23 02:39:09;;;;;;;42.37;21.17;;;9.80;91.00;;;;;;5028670;28;20418;-78
2023/02/23 02:41:41;;;;;;;37.93;19.03;;;9.80;91.00;;;;;;5024767;28;20519;-80
2023/02/23 02:44:35;;;;;;;40.00;19.50;;;9.80;91.00;;;;;;5034077;28;20416;-79
2023/02/23 02:47:08;;;;;;;41.60;19.70;;;9.80;91.00;;;;;;5025073;28;20443;-78
2023/02/23 02:49:58;;;;;;;36.40;20.47;;;9.80;91.00;;;;;;5033809;28;20423;-79
2023/02/23 02:52:30;;;;;;;41.57;20.87;;;9.80;91.10;;;;;;5033605;28;20415;-78
2023/02/23 02:55:08;;;;;;;46.40;21.80;;;9.80;91.20;;;;;;5029719;28;21027;-80
2023/02/23 02:57:34;;;;;;;48.97;22.87;;;9.80;91.20;;;;;;5029883;28;20407;-79
2023/02/23 04:18:14;;;;;;;37.87;22.73;;;9.80;90.80;;;;;;5034980;28;20430;-77
2023/02/23 04:20:39;;;;;;;42.03;22.00;;;9.80;90.80;;;;;;5030737;28;20419;-78
2023/02/23 04:23:05;;;;;;;37.30;20.77;;;9.90;90.80;;;;;;5034992;28;20454;-79
2023/02/23 04:25:30;;;;;;;44.23;20.67;;;9.90;90.70;;;;;;5034670;28;20727;-77
2023/02/23 04:27:56;;;;;;;39.57;19.70;;;9.90;90.70;;;;;;5033359;28;20181;-77
2023/02/23 04:30:24;;;;;;;38.60;21.03;;;9.90;90.60;;;;;;5036344;28;20217;-79
2023/02/23 04:32:51;;;;;;;36.50;20.33;;;9.90;90.70;;;;;;5036223;28;20296;-78
2023/02/23 04:35:16;;;;;;;44.23;24.40;;;9.90;90.80;;;;;;5033845;28;20455;-77
2023/02/23 04:37:42;;;;;;;41.77;20.60;;;9.90;90.70;;;;;;5037466;28;20446;-78
2023/02/23 04:40:08;;;;;;;47.70;21.63;;;9.80;90.70;;;;;;5036199;28;20185;-78
2023/02/23 04:42:34;;;;;;;38.90;20.90;;;9.80;90.70;;;;;;5036968;28;20270;-77
2023/02/23 04:45:00;;;;;;;40.70;20.67;;;9.80;90.70;;;;;;5037484;28;20983;-78
2023/02/23 04:47:25;;;;;;;38.10;21.13;;;9.90;90.80;;;;;;5042272;28;20558;-80
2023/02/23 04:49:51;;;;;;;51.03;24.50;;;9.90;90.90;;;;;;5050956;28;20189;-77
2023/02/23 04:52:17;;;;;;;40.07;22.23;;;9.90;90.70;;;;;;5048869;28;20661;-81
2023/02/23 04:54:42;;;;;;;42.67;23.50;;;9.90;90.40;;;;;;5038468;28;20464;-78
2023/02/23 04:57:08;;;;;;;41.97;23.33;;;9.80;90.30;;;;;;5049757;28;20559;-79
2023/02/23 04:59:34;;;;;;;47.77;23.50;;;9.80;90.20;;;;;;5042147;28;20251;-80
2023/02/23 05:02:00;;;;;;;46.00;24.43;;;9.70;90.20;;;;;;5033731;28;20467;-77
2023/02/23 05:04:26;;;;;;;43.80;24.13;;;9.70;90.40;;;;;;5034706;28;20434;-78
2023/02/23 05:06:51;;;;;;;43.60;23.10;;;9.60;90.60;;;;;;5028612;28;20709;-78
2023/02/23 05:09:17;;;;;;;49.20;24.53;;;9.70;90.80;;;;;;5033887;28;20182;-77
2023/02/23 05:11:43;;;;;;;44.80;23.70;;;9.70;90.90;;;;;;5046162;28;20952;-80
2023/02/23 05:14:09;;;;;;;51.80;24.43;;;9.70;90.80;;;;;;5046835;28;20181;-76
2023/02/23 05:16:34;;;;;;;49.00;24.10;;;9.70;90.70;;;;;;5044169;28;20200;-80
2023/02/23 05:19:00;;;;;;;44.30;24.33;;;9.70;90.80;;;;;;5057608;28;20435;-78
2023/02/23 05:21:26;;;;;;;47.30;23.80;;;9.80;90.90;;;;;;5057083;28;20207;-78
2023/02/23 05:23:52;;;;;;;42.30;23.90;;;9.80;90.90;;;;;;5051065;28;20193;-79
2023/02/23 05:26:17;;;;;;;46.70;27.13;;;9.70;90.90;;;;;;5039565;28;20793;-77
2023/02/23 05:28:43;;;;;;;42.87;22.97;;;9.70;90.90;;;;;;5036089;28;20186;-78
2023/02/23 05:31:11;;;;;;;48.83;25.93;;;9.70;91.00;;;;;;5034639;28;20189;-77
2023/02/23 05:33:44;;;;;;;46.90;23.30;;;9.70;91.20;;;;;;5036212;28;20181;-77
2023/02/23 05:36:16;;;;;;;43.80;22.33;;;9.60;91.20;;;;;;5036737;28;20487;-79
2023/02/23 05:38:43;;;;;;;40.17;22.00;;;9.70;91.20;;;;;;5043075;28;20420;-77
2023/02/23 05:41:14;;;;;;;46.40;22.80;;;9.70;91.00;;;;;;5050784;28;20428;-77
2023/02/23 05:43:40;;;;;;;45.00;22.43;;;9.70;91.00;;;;;;5053252;28;20578;-77
2023/02/23 05:46:07;;;;;;;34.67;20.20;;;9.80;91.10;;;;;;5051228;28;20454;-79
2023/02/23 05:48:33;;;;;;;44.50;22.57;;;9.80;91.20;;;;;;5050247;28;20420;-79
2023/02/23 05:51:10;;;;;;;32.17;18.37;;;9.80;91.20;;;;;;5048625;28;20416;-77
2023/02/23 05:53:35;;;;;;;35.07;18.00;;;9.90;91.20;;;;;;5035711;28;20440;-78
2023/02/23 05:56:03;;;;;;;29.50;15.60;;;9.90;91.20;;;;;;5046528;28;20485;-77
2023/02/23 05:58:29;;;;;;;31.00;17.50;;;9.90;91.10;;;;;;5045496;28;20188;-76
2023/02/23 06:00:55;;;;;;;46.87;21.67;;;9.90;91.00;;;;;;5048112;28;20446;-78
2023/02/23 06:03:21;;;;;;;43.70;19.07;;;9.80;91.00;;;;;;5047804;28;20462;-77
2023/02/23 06:05:55;;;;;;;40.30;21.20;;;9.90;91.20;;;;;;5051046;28;20444;-79
2023/02/23 06:08:23;;;;;;;31.33;18.47;;;9.90;91.10;;;;;;5040573;28;20787;-77
2023/02/23 06:10:49;;;;;;;38.87;21.03;;;9.90;91.20;;;;;;5039783;28;20494;-77
2023/02/23 06:13:15;;;;;;;41.27;20.50;;;9.90;91.30;;;;;;5043377;28;20927;-79
2023/02/23 06:15:41;;;;;;;41.93;22.40;;;10.00;91.30;;;;;;5041658;28;20213;-79
2023/02/23 06:18:10;;;;;;;47.27;24.53;;;9.90;91.30;;;;;;5041775;28;20256;-79
2023/02/23 06:20:36;;;;;;;40.30;22.40;;;9.90;91.20;;;;;;5043327;28;20447;-79
2023/02/23 06:23:03;;;;;;;35.43;20.37;;;9.90;91.20;;;;;;5033134;28;20472;-78
2023/02/23 06:25:28;;;;;;;34.60;21.20;;;9.90;91.20;;;;;;5042868;28;20473;-79
2023/02/23 06:27:54;;;;;;;39.20;21.83;;;9.90;91.30;;;;;;5040809;28;20428;-78
2023/02/23 06:30:20;;;;;;;42.40;22.20;;;9.90;91.30;;;;;;5036107;28;20194;-78
2023/02/23 06:32:45;;;;;;;44.43;22.07;;;9.90;91.30;;;;;;5028974;28;20236;-79
2023/02/23 06:35:11;;;;;;;45.50;23.10;;;9.90;91.20;;;;;;5032804;28;20440;-80
2023/02/23 06:37:37;;;;;;;43.73;21.80;;;9.90;91.10;;;;;;5033775;28;20212;-78
2023/02/23 06:40:04;;;;;;;37.63;21.47;;;9.90;91.10;;;;;;5034215;28;20852;-80
2023/02/23 06:42:29;;;;;;;37.43;20.37;;;9.90;91.10;;;;;;5035664;28;20208;-80
2023/02/23 06:44:55;;;;;;;29.00;15.53;;;9.90;91.10;;;;;;5039523;28;21013;-79
2023/02/23 06:47:21;;;;;;;29.53;14.53;;;9.90;91.20;;;;;;5038189;28;20177;-80
2023/02/23 06:49:46;;;;;;;23.37;14.00;;;10.00;91.20;;;;;;5033301;28;20193;-79
2023/02/23 06:52:13;;;;;;;22.70;11.97;;;9.90;91.20;;;;;;5035254;28;20193;-80
2023/02/23 06:54:40;;;;;;;29.70;15.13;;;9.90;91.30;;;;;;5031404;28;20217;-81
2023/02/23 06:57:06;;;;;;;25.03;12.00;;;9.90;91.30;;;;;;5031736;28;20424;-80
2023/02/23 06:59:32;;;;;;;23.63;11.90;;;9.90;91.30;;;;;;5034343;28;20463;-80
2023/02/23 07:01:57;;;;;;;20.50;12.37;;;10.00;91.30;;;;;;5027553;28;20457;-80
2023/02/23 07:04:24;;;;;;;24.57;12.63;;;10.00;91.30;;;;;;5036540;28;20216;-78
2023/02/23 07:06:50;;;;;;;17.83;11.53;;;10.00;91.40;;;;;;5033591;28;20584;-81
2023/02/23 07:09:16;;;;;;;26.77;11.13;;;10.00;91.40;;;;;;5028759;28;20487;-79
2023/02/23 07:11:43;;;;;;;21.60;11.80;;;10.00;91.30;;;;;;5027026;28;20848;-80
2023/02/23 07:14:10;;;;;;;20.53;11.57;;;10.00;91.20;;;;;;5024523;28;20283;-81
2023/02/23 07:16:36;;;;;;;17.17;11.43;;;10.00;91.20;;;;;;5026295;28;20826;-79
2023/02/23 07:19:02;;;;;;;22.47;11.13;;;10.10;91.30;;;;;;5033351;28;20415;-80
2023/02/23 07:21:30;;;;;;;24.73;10.90;;;10.10;91.30;;;;;;5035635;28;20408;-79
2023/02/23 07:23:56;;;;;;;23.30;10.37;;;10.10;91.30;;;;;;5036621;28;20803;-80
2023/02/23 07:26:22;;;;;;;20.10;10.77;;;10.10;91.30;;;;;;5038578;28;20551;-80
2023/02/23 07:28:48;;;;;;;33.17;12.07;;;10.20;91.30;;;;;;5037676;28;20420;-79
2023/02/23 07:31:13;;;;;;;22.87;12.40;;;10.30;91.20;;;;;;5037000;28;20185;-78
2023/02/23 07:33:39;;;;;;;27.23;12.97;;;10.30;90.80;;;;;;5039759;28;20197;-78
2023/02/23 07:36:05;;;;;;;22.90;12.77;;;10.30;90.60;;;;;;5044137;28;20628;-79
2023/02/23 07:38:30;;;;;;;23.53;11.77;;;10.30;90.80;;;;;;5045299;28;20190;-79
2023/02/23 07:40:56;;;;;;;21.20;12.20;;;10.40;90.80;;;;;;5046788;28;20431;-79
2023/02/23 07:43:23;;;;;;;19.67;10.87;;;10.40;90.50;;;;;;5046118;28;20216;-79
2023/02/23 07:45:50;;;;;;;23.20;11.27;;;10.50;90.20;;;;;;5038416;28;20201;-80
2023/02/23 07:48:16;;;;;;;21.57;10.60;;;10.50;89.90;;;;;;5041861;28;21112;-81
2023/02/23 07:50:41;;;;;;;23.97;11.77;;;10.60;89.90;;;;;;5041210;28;20423;-80
2023/02/23 07:53:07;;;;;;;23.10;11.30;;;10.50;89.00;;;;;;5039338;28;20931;-79
2023/02/23 07:55:33;;;;;;;18.97;10.30;;;10.60;89.20;;;;;;5032856;28;20266;-79
2023/02/23 07:57:58;;;;;;;21.83;10.00;;;10.60;88.90;;;;;;5037205;28;20623;-81
2023/02/23 08:00:26;;;;;;;24.13;12.00;;;10.70;88.70;;;;;;5035431;28;20543;-80
2023/02/23 08:02:52;;;;;;;21.80;10.67;;;10.70;88.30;;;;;;5035647;28;20212;-80
2023/02/23 08:05:18;;;;;;;19.67;10.60;;;10.80;88.40;;;;;;5030863;28;20471;-80
2023/02/23 08:07:44;;;;;;;23.13;10.80;;;10.80;88.00;;;;;;5035620;28;20523;-80
2023/02/23 08:10:11;;;;;;;17.83;10.03;;;10.90;88.00;;;;;;5036050;28;20451;-81
2023/02/23 08:12:37;;;;;;;20.40;10.20;;;10.90;87.60;;;;;;5029515;28;20412;-80
2023/02/23 08:15:07;;;;;;;22.50;11.00;;;10.90;87.30;;;;;;5030016;28;20509;-79
2023/02/23 08:17:36;;;;;;;22.50;10.73;;;11.00;87.00;;;;;;5035630;28;20173;-80
2023/02/23 08:20:02;;;;;;;21.43;10.40;;;11.00;86.90;;;;;;5034266;28;20735;-80
2023/02/23 08:22:27;;;;;;;15.40;9.73;;;10.90;86.80;;;;;;5031015;28;20455;-80
2023/02/23 08:24:53;;;;;;;16.80;9.60;;;11.00;86.90;;;;;;5031536;28;20486;-79
2023/02/23 08:27:19;;;;;;;18.33;9.10;;;11.20;86.80;;;;;;5036570;28;20216;-78
2023/02/23 08:29:44;;;;;;;21.70;11.13;;;11.20;86.50;;;;;;5034185;28;20311;-80
2023/02/23 08:32:10;;;;;;;19.67;11.30;;;11.30;85.90;;;;;;5030458;28;20416;-80
2023/02/23 08:34:38;;;;;;;16.50;9.50;;;11.50;85.60;;;;;;5034946;28;20699;-79
2023/02/23 08:37:03;;;;;;;20.63;10.50;;;11.60;85.50;;;;;;5029933;28;20184;-80
2023/02/23 08:39:32;;;;;;;19.47;11.17;;;11.70;85.20;;;;;;5033041;28;20823;-79
2023/02/23 08:41:58;;;;;;;19.03;9.93;;;11.80;84.60;;;;;;5025027;28;20627;-79
2023/02/23 08:44:23;;;;;;;17.33;9.77;;;11.90;84.00;;;;;;5031376;28;20447;-80
2023/02/23 08:46:49;;;;;;;21.70;9.50;;;12.00;83.40;;;;;;5033422;28;20227;-80
2023/02/23 08:49:15;;;;;;;17.87;9.97;;;12.10;83.40;;;;;;5031539;28;20196;-79
2023/02/23 08:51:41;;;;;;;18.47;9.40;;;12.10;82.80;;;;;;5028343;28;20420;-79
2023/02/23 08:54:13;;;;;;;20.17;10.17;;;12.20;82.40;;;;;;5029378;28;20190;-79
2023/02/23 08:56:39;;;;;;;18.20;7.83;;;12.30;81.90;;;;;;5025608;28;20578;-81
2023/02/23 08:59:04;;;;;;;17.77;8.53;;;12.20;81.80;;;;;;5032531;28;20428;-79
2023/02/23 09:01:30;;;;;;;12.40;8.23;;;12.20;81.80;;;;;;5026031;28;20442;-79
2023/02/23 09:03:55;;;;;;;15.43;8.40;;;12.20;81.70;;;;;;5033869;28;20209;-80
2023/02/23 09:06:24;;;;;;;13.30;8.50;;;12.20;81.20;;;;;;5031915;28;20209;-79
2023/02/23 09:08:50;;;;;;;17.53;8.50;;;12.20;81.10;;;;;;5037698;28;20181;-79
2023/02/23 09:11:15;;;;;;;18.07;8.43;;;12.10;81.50;;;;;;5036083;28;20421;-80
2023/02/23 09:13:41;;;;;;;14.37;8.17;;;12.10;81.50;;;;;;5034684;28;20493;-79
2023/02/23 09:16:07;;;;;;;17.97;8.47;;;12.20;81.50;;;;;;5030948;28;20609;-79
2023/02/23 09:18:33;;;;;;;16.67;7.90;;;12.20;81.50;;;;;;5032468;28;20185;-80
2023/02/23 09:21:05;;;;;;;16.13;8.20;;;12.40;81.70;;;;;;5032176;28;20181;-80
2023/02/23 09:23:32;;;;;;;18.70;7.43;;;12.50;81.10;;;;;;5033318;28;20582;-80
2023/02/23 09:26:05;;;;;;;15.90;8.20;;;12.60;80.20;;;;;;5029508;28;20463;-81
2023/02/23 09:28:32;;;;;;;13.17;7.70;;;12.60;79.90;;;;;;5030936;28;20421;-80
2023/02/23 09:31:09;;;;;;;16.87;7.47;;;12.70;79.90;;;;;;5029064;28;20474;-79
2023/02/23 09:33:35;;;;;;;18.40;8.10;;;12.80;79.30;;;;;;5029254;28;20594;-79
2023/02/23 09:36:06;;;;;;;18.50;9.57;;;12.90;78.90;;;;;;5024969;28;20460;-80
2023/02/23 09:38:32;;;;;;;20.60;9.63;;;13.00;78.90;;;;;;5033933;28;20430;-80
2023/02/23 09:40:57;;;;;;;15.23;7.43;;;13.10;78.70;;;;;;5027331;28;20428;-78
2023/02/23 09:43:46;;;;;;;20.03;9.33;;;13.10;78.10;;;;;;5033842;28;20910;-80
2023/02/23 09:46:28;;;;;;;15.87;8.00;;;13.20;77.40;;;;;;5028539;28;20297;-80
2023/02/23 09:48:57;;;;;;;18.03;7.60;;;13.20;77.60;;;;;;5027936;28;20415;-81
2023/02/23 09:51:23;;;;;;;21.93;8.70;;;13.30;77.00;;;;;;5031906;28;20515;-80
2023/02/23 09:53:59;;;;;;;15.70;7.60;;;13.40;76.80;;;;;;5029147;28;20416;-80
2023/02/23 09:56:34;;;;;;;22.27;9.47;;;13.40;77.10;;;;;;5025794;28;20471;-80
2023/02/23 09:59:01;;;;;;;14.80;7.57;;;13.60;77.00;;;;;;5032270;28;20424;-80
2023/02/23 10:01:47;;;;;;;13.10;7.30;;;13.70;76.50;;;;;;5026527;28;20917;-80
2023/02/23 10:04:13;;;;;;;14.00;6.53;;;13.80;75.80;;;;;;5027746;28;20499;-78
2023/02/23 10:06:44;;;;;;;12.30;6.53;;;13.90;74.90;;;;;;5026824;28;20880;-80
2023/02/23 10:09:21;;;;;;;15.53;8.10;;;14.00;74.00;;;;;;5026253;28;20266;-80
2023/02/23 10:12:06;;;;;;;19.10;10.57;;;14.10;73.90;;;;;;5021410;28;20490;-81
2023/02/23 10:15:05;;;;;;;20.03;11.30;;;14.00;74.50;;;;;;5020279;28;20464;-80
2023/02/23 10:17:33;;;;;;;30.97;14.33;;;14.00;75.20;;;;;;5047789;28;20432;-80
2023/02/23 10:20:22;;;;;;;24.67;12.47;;;13.60;76.50;;;;;;5031650;28;20424;-80
2023/02/23 10:22:50;;;;;;;22.50;13.63;;;13.60;77.10;;;;;;5028001;28;20470;-81
2023/02/23 10:25:24;;;;;;;26.60;12.77;;;13.60;76.80;;;;;;5039223;28;20478;-79
2023/02/23 10:27:50;;;;;;;27.63;13.07;;;13.70;76.70;;;;;;5041059;28;20519;-80
2023/02/23 10:30:27;;;;;;;23.27;12.97;;;13.60;76.70;;;;;;5042982;28;20443;-79
2023/02/23 10:33:19;;;;;;;29.23;13.50;;;13.60;76.80;;;;;;5054305;28;20454;-78
2023/02/23 10:35:44;;;;;;;19.50;11.17;;;13.70;76.40;;;;;;5042173;28;20516;-79
2023/02/23 10:38:17;;;;;;;24.03;12.13;;;13.80;75.90;;;;;;5048481;28;20507;-80
2023/02/23 10:40:54;;;;;;;21.10;10.73;;;13.90;75.80;;;;;;5049222;28;20249;-80
2023/02/23 10:43:20;;;;;;;13.90;7.00;;;14.00;75.80;;;;;;5033620;28;20465;-79
2023/02/23 10:45:58;;;;;;;15.30;7.30;;;14.10;74.80;;;;;;5021178;28;20457;-79
2023/02/23 10:48:34;;;;;;;12.87;7.43;;;14.20;73.60;;;;;;5023134;28;20514;-79
2023/02/23 10:51:03;;;;;;;12.03;6.40;;;14.40;73.50;;;;;;5025293;28;20430;-79
2023/02/23 10:53:36;;;;;;;7.30;4.50;;;14.50;73.00;;;;;;5029412;28;20450;-78
2023/02/23 10:56:13;;;;;;;6.77;3.80;;;14.60;71.10;;;;;;5027533;28;20463;-80
2023/02/23 10:58:42;;;;;;;14.93;4.53;;;14.60;69.50;;;;;;5032272;28;20424;-80
2023/02/23 11:01:08;;;;;;;15.87;7.80;;;14.50;69.80;;;;;;5030771;28;20468;-80
2023/02/23 11:03:37;;;;;;;22.93;10.63;;;14.50;71.70;;;;;;5029818;28;20543;-80
2023/02/23 11:06:03;;;;;;;29.43;14.13;;;14.60;72.30;;;;;;5024019;28;20467;-80
2023/02/23 11:08:40;;;;;;;23.40;12.27;;;14.60;72.90;;;;;;5027446;28;20440;-81
2023/02/23 11:11:14;;;;;;;26.80;10.23;;;14.50;73.20;;;;;;5028009;28;20432;-78
2023/02/23 11:13:48;;;;;;;24.80;11.07;;;14.40;72.90;;;;;;5025716;28;20426;-79
2023/02/23 11:16:22;;;;;;;22.83;10.90;;;14.20;73.90;;;;;;5022057;28;20534;-80
2023/02/23 11:18:53;;;;;;;20.50;10.87;;;14.00;74.30;;;;;;5023105;28;20440;-79
2023/02/23 11:21:38;;;;;;;21.00;10.70;;;13.90;74.90;;;;;;5019816;28;20444;-80
2023/02/23 11:24:23;;;;;;;21.70;11.57;;;13.90;74.30;;;;;;5024964;28;20888;-79
2023/02/23 11:26:52;;;;;;;23.00;9.87;;;14.00;74.90;;;;;;5029731;28;20523;-80
2023/02/23 11:29:38;;;;;;;22.63;11.07;;;14.10;74.60;;;;;;5026534;28;20429;-80
2023/02/23 11:32:12;;;;;;;24.60;11.90;;;14.20;73.70;;;;;;5033375;28;20451;-79
2023/02/23 11:34:42;;;;;;;27.10;12.43;;;14.00;74.30;;;;;;5024710;28;20423;-80
2023/02/23 11:37:30;;;;;;;21.90;10.37;;;13.90;74.80;;;;;;5027428;28;20444;-80
2023/02/23 11:39:58;;;;;;;24.40;12.20;;;13.90;74.20;;;;;;5034318;28;20460;-79
2023/02/23 11:42:32;;;;;;;19.67;10.00;;;14.00;74.30;;;;;;5040002;28;20482;-81
2023/02/23 11:45:06;;;;;;;27.40;10.47;;;14.00;74.20;;;;;;5031548;28;20460;-80
2023/02/23 11:47:37;;;;;;;20.90;12.07;;;14.00;74.00;;;;;;5026236;28;20480;-80
2023/02/23 11:50:03;;;;;;;18.50;9.63;;;13.90;74.30;;;;;;5031967;28;20423;-80
2023/02/23 11:52:30;;;;;;;19.53;9.83;;;14.00;73.70;;;;;;5030673;28;20443;-80
2023/02/23 11:54:57;;;;;;;21.37;11.00;;;14.00;74.20;;;;;;5030587;28;20521;-79
2023/02/23 11:57:28;;;;;;;26.57;11.10;;;14.10;73.90;;;;;;5036095;28;20425;-81
2023/02/23 11:59:56;;;;;;;25.73;11.83;;;14.20;73.60;;;;;;5035138;28;20412;-79
2023/02/23 12:02:28;;;;;;;18.20;9.57;;;14.30;73.20;;;;;;5028894;28;20486;-79
2023/02/23 12:05:08;;;;;;;19.13;10.43;;;14.60;72.90;;;;;;5029268;28;20465;-79
2023/02/23 12:07:40;;;;;;;18.60;9.37;;;14.90;72.10;;;;;;5023162;28;20427;-80
2023/02/23 12:10:30;;;;;;;16.47;9.13;;;14.90;71.70;;;;;;5033148;28;20859;-79
2023/02/23 12:13:21;;;;;;;17.00;9.13;;;14.70;71.80;;;;;;5020547;28;20529;-80
2023/02/23 12:15:49;;;;;;;29.37;10.30;;;14.80;71.70;;;;;;5023775;28;20502;-79
2023/02/23 12:18:24;;;;;;;34.93;11.57;;;14.90;71.40;;;;;;5031229;28;20453;-81
2023/02/23 12:20:53;;;;;;;17.27;9.67;;;14.80;71.30;;;;;;5030858;28;20464;-80
2023/02/23 12:23:24;;;;;;;19.43;8.67;;;14.70;71.70;;;;;;5033521;28;20471;-79
2023/02/23 12:25:56;;;;;;;19.17;8.07;;;14.60;71.60;;;;;;5026532;28;20831;-79
2023/02/23 12:28:30;;;;;;;22.47;9.40;;;14.50;71.10;;;;;;5022646;28;20434;-78
2023/02/23 12:30:59;;;;;;;16.03;8.37;;;14.50;71.70;;;;;;5030589;28;20899;-78
2023/02/23 12:33:46;;;;;;;19.73;8.87;;;14.40;72.00;;;;;;5033082;28;20439;-80
2023/02/23 12:36:38;;;;;;;17.23;8.00;;;14.30;72.00;;;;;;5024371;28;20763;-80
2023/02/23 12:39:19;;;;;;;17.80;7.60;;;14.40;72.00;;;;;;5026635;28;20436;-80
2023/02/23 12:42:06;;;;;;;12.53;7.30;;;14.40;71.70;;;;;;5034244;28;20519;-80
2023/02/23 12:44:52;;;;;;;18.50;7.27;;;14.20;71.30;;;;;;5029399;28;20488;-81
2023/02/23 12:47:21;;;;;;;14.83;7.63;;;14.20;71.40;;;;;;5034920;28;20416;-81
2023/02/23 12:50:27;;;;;;;14.93;7.10;;;14.30;71.60;;;;;;5031386;28;20436;-80
2023/02/23 12:52:57;;;;;;;19.40;9.30;;;14.40;71.80;;;;;;5031225;28;20422;-80
2023/02/23 12:56:07;;;;;;;17.40;7.80;;;14.50;71.60;;;;;;5042454;28;20496;-81
2023/02/23 12:59:29;;;;;;;15.07;6.90;;;14.50;71.30;;;;;;5035916;28;20457;-81
2023/02/23 13:02:10;;;;;;;15.30;6.90;;;14.50;70.80;;;;;;4941797;28;20470;-81
2023/02/23 13:05:04;;;;;;;10.57;5.67;;;14.60;70.40;;;;;;5034332;28;20432;-80
2023/02/23 13:07:53;;;;;;;13.07;6.63;;;14.60;70.10;;;;;;5036869;28;20430;-81
2023/02/23 13:10:24;;;;;;;12.67;6.40;;;14.60;70.40;;;;;;5043782;28;20446;-79
2023/02/23 13:13:19;;;;;;;10.33;6.00;;;14.60;70.20;;;;;;5040837;28;20517;-80
2023/02/23 13:15:57;;;;;;;14.37;6.40;;;14.50;70.10;;;;;;5042771;28;20468;-81
2023/02/23 13:18:33;;;;;;;15.37;6.10;;;14.50;70.20;;;;;;5044196;28;20428;-80
2023/02/23 13:21:22;;;;;;;15.23;6.10;;;14.60;70.40;;;;;;5042622;28;20415;-79
2023/02/23 13:24:13;;;;;;;10.57;5.80;;;14.60;70.20;;;;;;5034994;28;20493;-80
2023/02/23 13:26:45;;;;;;;15.33;5.60;;;14.40;70.10;;;;;;5029100;28;20518;-81
2023/02/23 13:29:31;;;;;;;17.23;6.37;;;14.40;70.50;;;;;;5034718;28;20503;-80
2023/02/23 13:31:59;;;;;;;30.93;7.70;;;14.30;70.20;;;;;;5034517;28;20412;-80
2023/02/23 13:34:41;;;;;;;15.40;6.40;;;14.30;70.50;;;;;;5033013;28;20448;-81
2023/02/23 13:37:08;;;;;;;14.03;6.70;;;14.10;70.80;;;;;;5034639;28;20419;-81
2023/02/23 13:39:46;;;;;;;15.97;6.90;;;14.00;71.00;;;;;;5032219;28;21220;-81
2023/02/23 13:42:36;;;;;;;16.07;6.90;;;14.00;71.30;;;;;;5034974;28;20446;-80
2023/02/23 13:45:34;;;;;;;12.77;6.83;;;14.00;71.70;;;;;;5025609;28;20972;-81
2023/02/23 13:48:25;;;;;;;15.07;6.77;;;14.00;71.60;;;;;;5032184;28;20436;-80
2023/02/23 13:51:17;;;;;;;14.23;6.90;;;14.00;71.70;;;;;;5034446;28;20413;-81
2023/02/23 13:53:58;;;;;;;13.70;7.73;;;14.00;72.10;;;;;;5034739;28;20481;-80
2023/02/23 13:56:28;;;;;;;16.97;8.23;;;13.90;72.40;;;;;;5032742;28;20523;-81
2023/02/23 13:59:08;;;;;;;17.00;9.03;;;13.80;73.20;;;;;;5031127;28;20434;-82
2023/02/23 14:01:42;;;;;;;15.80;8.50;;;13.70;73.70;;;;;;5035652;28;20444;-80
2023/02/23 14:04:34;;;;;;;17.53;8.43;;;13.70;74.00;;;;;;5032908;28;20545;-82
2023/02/23 14:07:04;;;;;;;20.00;9.80;;;13.70;74.30;;;;;;5030037;28;20761;-81
2023/02/23 14:09:34;;;;;;;18.03;9.33;;;13.70;74.50;;;;;;5034802;28;20420;-81
2023/02/23 14:12:24;;;;;;;15.70;7.70;;;13.70;74.50;;;;;;5035653;28;20416;-81
2023/02/23 14:14:50;;;;;;;18.03;9.60;;;13.70;74.30;;;;;;5028275;28;21109;-80
2023/02/23 14:17:18;;;;;;;13.53;8.30;;;13.70;74.20;;;;;;5031134;28;20435;-80